Time;durP1;ratioP1;P1;durP2;ratioP2;P2;SDS_P1;SDS_P2;PMS_P1;PMS_P2;Temp;Humidity;BMP_temperature;BMP_pressure;BME280_temperature;BME280_humidity;BME280_pressure;Samples;Min_cycle;Max_cycle;Signal;HPM_P1;HPM_P2
2023/04/24 07:01:21;;;;;;;4.47;1.63;;;10.50;99.90;13.80;100294.00;;;;6339228;22;20433;-70
2023/04/24 07:03:53;;;;;;;1.17;1.17;;;10.60;99.90;13.70;100286.00;;;;6313372;22;20145;-69
2023/04/24 07:06:21;;;;;;;1.27;1.27;;;10.60;99.90;14.00;100300.00;;;;6340562;22;20623;-69
2023/04/24 07:08:47;;;;;;;1.77;1.67;;;10.70;99.90;13.80;100302.00;;;;6313456;22;20168;-70
2023/04/24 07:11:16;;;;;;;1.13;1.13;;;10.70;99.90;13.20;100319.00;;;;6313300;22;20142;-69
2023/04/24 07:13:49;;;;;;;1.30;1.30;;;10.60;99.90;14.10;100310.00;;;;6312955;22;20174;-70
2023/04/24 07:16:22;;;;;;;1.50;1.50;;;10.80;99.90;14.20;100300.00;;;;6313346;22;20142;-70
2023/04/24 07:18:47;;;;;;;1.87;1.77;;;10.90;99.90;13.60;100318.00;;;;6340206;22;20165;-70
2023/04/24 07:21:17;;;;;;;1.57;1.57;;;10.90;99.90;14.00;100311.00;;;;6340619;22;20143;-70
2023/04/24 07:23:48;;;;;;;1.30;1.30;;;11.00;99.90;14.50;100323.00;;;;6339723;22;20151;-70
2023/04/24 07:26:14;;;;;;;1.27;1.27;;;11.20;99.90;14.60;100338.00;;;;6340706;22;20140;-69
2023/04/24 07:28:44;;;;;;;1.40;1.30;;;11.20;99.90;15.10;100351.00;;;;6286854;22;20159;-69
2023/04/24 07:31:16;;;;;;;2.47;2.37;;;11.50;99.90;14.70;100358.00;;;;6313799;22;20189;-69
2023/04/24 07:33:57;;;;;;;1.80;1.67;;;11.70;99.90;14.70;100305.00;;;;6312600;22;20172;-69
2023/04/24 07:36:25;;;;;;;1.40;1.40;;;11.70;99.90;15.30;100352.00;;;;6340082;22;20163;-69
2023/04/24 07:38:57;;;;;;;2.00;1.90;;;11.80;99.90;15.50;100363.00;;;;6313298;22;20146;-69
2023/04/24 07:41:41;;;;;;;2.37;2.27;;;12.10;99.90;15.10;100322.00;;;;6313154;22;20228;-69
2023/04/24 07:44:09;;;;;;;1.20;1.20;;;12.10;99.90;14.40;100358.00;;;;6313130;22;20537;-69
2023/04/24 07:46:35;;;;;;;1.10;1.10;;;11.60;99.90;14.30;100363.00;;;;6340303;22;20191;-69
2023/04/24 07:49:05;;;;;;;2.10;2.00;;;11.50;99.90;14.40;100366.00;;;;6312556;22;20458;-69
2023/04/24 07:51:32;;;;;;;12.90;2.23;;;11.50;99.90;12.90;100355.00;;;;6312055;22;20140;-69
2023/04/24 07:53:58;;;;;;;1.00;1.00;;;11.00;99.90;14.00;100366.00;;;;6313008;22;20143;-69
2023/04/24 07:56:32;;;;;;;0.90;0.90;;;11.00;99.90;14.20;100373.00;;;;6339846;22;20211;-69
2023/04/24 07:59:10;;;;;;;2.03;2.03;;;11.20;99.90;14.50;100378.00;;;;6310488;22;20242;-69
2023/04/24 08:01:41;;;;;;;1.57;1.47;;;11.40;99.90;13.90;100389.00;;;;6281489;22;20208;-68
2023/04/24 08:04:07;;;;;;;1.23;1.20;;;11.30;99.90;13.70;100389.00;;;;6281649;22;20182;-69
2023/04/24 08:06:36;;;;;;;3.17;2.97;;;11.10;99.90;13.20;100382.00;;;;6308224;22;20140;-69
2023/04/24 08:09:05;;;;;;;5.50;2.67;;;11.00;99.90;14.00;100342.00;;;;6281340;22;20156;-69
2023/04/24 08:11:32;;;;;;;1.53;1.43;;;11.10;99.90;14.90;100400.00;;;;6281128;22;20139;-69
2023/04/24 08:14:15;;;;;;;9.53;1.87;;;11.80;99.90;16.00;100422.00;;;;6281961;22;20156;-69
2023/04/24 08:16:47;;;;;;;2.87;2.67;;;12.50;99.90;16.00;100448.00;;;;6281443;22;20158;-70
2023/04/24 08:19:13;;;;;;;4.33;3.87;;;13.10;99.90;15.40;100456.00;;;;6256128;22;20285;-69
2023/04/24 08:22:28;;;;;;;;;;;;;;;;;;;;;
2023/04/24 08:25:46;;;;;;;1.07;1.07;;;12.90;99.90;15.20;100465.00;;;;6277944;22;20542;-69
2023/04/24 08:28:22;;;;;;;0.80;0.80;;;12.60;99.90;15.30;100469.00;;;;6240777;22;20165;-69
2023/04/24 08:30:54;;;;;;;1.13;0.83;;;12.30;99.90;14.40;100460.00;;;;6308342;22;20198;-69
2023/04/24 08:33:23;;;;;;;0.70;0.70;;;12.00;99.90;14.60;100478.00;;;;6255572;22;20265;-69
2023/04/24 08:35:52;;;;;;;0.60;0.60;;;12.00;99.90;14.40;100477.00;;;;6281239;22;20565;-69
2023/04/24 08:38:18;;;;;;;1.03;1.03;;;11.90;99.90;15.20;100482.00;;;;6282192;22;20182;-69
2023/04/24 08:40:45;;;;;;;2.03;1.83;;;12.00;99.90;15.10;100495.00;;;;6255248;22;20496;-69
2023/04/24 08:43:18;;;;;;;1.20;1.20;;;12.10;99.90;14.90;100453.00;;;;6281271;22;20237;-69
2023/04/24 08:46:01;;;;;;;1.10;1.10;;;11.90;99.90;14.50;100496.00;;;;6281253;22;20156;-69
2023/04/24 08:48:28;;;;;;;0.90;0.90;;;11.70;99.90;14.50;100492.00;;;;6282095;22;20140;-69
2023/04/24 08:50:55;;;;;;;1.03;1.03;;;11.50;99.90;14.70;100505.00;;;;6280660;22;20196;-70
2023/04/24 08:53:21;;;;;;;7.17;2.70;;;11.50;99.90;14.20;100494.00;;;;6280991;22;20166;-69
2023/04/24 08:55:48;;;;;;;5.50;2.67;;;11.40;99.90;14.30;100509.00;;;;6280983;22;20373;-69
2023/04/24 08:58:16;;;;;;;1.03;1.03;;;11.40;99.90;14.10;100485.00;;;;6281090;22;20481;-70
2023/04/24 09:00:46;;;;;;;1.40;1.33;;;11.40;99.90;14.90;100502.00;;;;6308456;22;20170;-69
2023/04/24 09:03:16;;;;;;;0.90;0.90;;;11.70;99.90;15.60;100518.00;;;;6281727;22;20183;-69
2023/04/24 09:05:45;;;;;;;1.00;1.00;;;12.20;99.90;15.90;100525.00;;;;6280773;22;20141;-70
2023/04/24 09:08:13;;;;;;;2.50;2.30;;;12.80;99.90;16.80;100521.00;;;;6255804;22;20165;-70
2023/04/24 09:10:43;;;;;;;1.67;1.67;;;13.40;99.90;17.20;100526.00;;;;6280879;22;20182;-69
2023/04/24 09:13:10;;;;;;;1.50;1.50;;;14.00;99.90;17.60;100549.00;;;;6308292;22;20224;-70
2023/04/24 09:15:38;;;;;;;2.00;1.90;;;14.20;99.90;17.70;100555.00;;;;6280694;22;20250;-70
2023/04/24 09:18:07;;;;;;;1.40;1.23;;;14.30;99.90;16.60;100537.00;;;;6280535;22;20526;-70
2023/04/24 09:20:35;;;;;;;0.70;0.70;;;13.90;99.90;16.90;100548.00;;;;6281135;22;20144;-70
2023/04/24 09:23:02;;;;;;;1.90;1.20;;;13.70;99.90;16.80;100563.00;;;;6307933;22;20137;-70
2023/04/24 09:25:36;;;;;;;0.93;0.93;;;13.70;99.90;16.50;100583.00;;;;6280862;22;20258;-70
2023/04/24 09:28:04;;;;;;;0.40;0.40;;;13.60;99.90;16.40;100574.00;;;;6281500;22;20218;-70
2023/04/24 09:30:36;;;;;;;0.87;0.87;;;13.30;99.90;16.30;100568.00;;;;6281208;22;20150;-70
2023/04/24 09:33:17;;;;;;;5.80;1.33;;;13.20;99.90;16.10;100599.00;;;;6307288;22;20198;-69
2023/04/24 09:35:52;;;;;;;0.60;0.60;;;13.10;99.90;16.20;100605.00;;;;6307521;22;20143;-69
2023/04/24 09:38:18;;;;;;;0.50;0.50;;;13.20;99.90;16.60;100617.00;;;;6280540;22;20217;-70
2023/04/24 09:41:08;;;;;;;1.13;1.03;;;13.30;99.90;16.70;100630.00;;;;6280185;22;20590;-69
2023/04/24 09:43:35;;;;;;;0.80;0.73;;;13.40;99.90;17.10;100647.00;;;;6280509;22;20161;-70
2023/04/24 09:46:08;;;;;;;0.63;0.63;;;13.80;99.90;16.80;100657.00;;;;6280874;22;20171;-70
2023/04/24 09:48:38;;;;;;;0.80;0.80;;;13.60;99.90;17.00;100658.00;;;;6280521;22;20624;-70
2023/04/24 09:51:10;;;;;;;0.40;0.40;;;13.60;99.90;17.20;100670.00;;;;6307823;22;20144;-70
2023/04/24 09:53:39;;;;;;;0.40;0.40;;;13.70;99.90;17.50;100663.00;;;;6280362;22;20179;-70
2023/04/24 09:56:10;;;;;;;0.30;0.30;;;13.80;99.90;17.60;100672.00;;;;6280874;22;20141;-70
2023/04/24 09:58:37;;;;;;;0.40;0.40;;;14.20;99.90;18.00;100683.00;;;;6280264;22;20475;-69
2023/04/24 10:01:06;;;;;;;0.20;0.20;;;14.70;99.90;18.60;100692.00;;;;6308620;22;20167;-69
2023/04/24 10:03:33;;;;;;;0.40;0.40;;;14.90;99.90;18.50;100702.00;;;;6310781;22;20164;-69
2023/04/24 10:06:08;;;;;;;0.60;0.50;;;14.90;99.90;17.90;100707.00;;;;6311580;22;20252;-69
2023/04/24 10:08:37;;;;;;;0.30;0.30;;;14.70;99.90;17.80;100711.00;;;;6311281;22;20159;-70
2023/04/24 10:11:04;;;;;;;4.97;1.37;;;14.40;99.90;17.90;100716.00;;;;6338900;22;20156;-69
2023/04/24 10:13:36;;;;;;;3.20;0.60;;;14.40;99.90;17.60;100728.00;;;;6338727;22;20168;-69
2023/04/24 10:16:04;;;;;;;0.20;0.20;;;14.20;99.90;17.70;100742.00;;;;6311340;22;20146;-69
2023/04/24 10:18:33;;;;;;;0.20;0.20;;;14.00;99.90;17.80;100720.00;;;;6338762;22;20472;-69
2023/04/24 10:33:26;;;;;;;1.23;0.83;;;11.30;99.90;14.80;100654.00;;;;5090322;28;20513;-68
2023/04/24 10:35:55;;;;;;;0.73;0.73;;;11.90;99.90;14.40;100657.00;;;;5069344;28;20187;-68
2023/04/24 10:38:29;;;;;;;4.43;0.90;;;12.00;99.90;13.50;100652.00;;;;5069226;28;20186;-68
2023/04/24 10:41:16;;;;;;;6.30;1.23;;;11.80;99.90;13.00;100645.00;;;;5069069;28;20183;-68
2023/04/24 10:43:44;;;;;;;0.63;0.63;;;11.50;99.90;14.60;100659.00;;;;5063353;28;20195;-68
2023/04/24 10:46:19;;;;;;;1.60;0.80;;;12.00;99.90;16.10;100670.00;;;;5069021;28;20184;-68
2023/04/24 10:48:54;;;;;;;2.13;1.13;;;12.80;99.90;15.00;100684.00;;;;5068731;28;20179;-68
2023/04/24 10:51:23;;;;;;;0.93;0.77;;;12.80;99.90;15.40;100706.00;;;;5069943;28;20258;-68
2023/04/24 10:53:53;;;;;;;0.10;0.10;;;13.00;99.90;15.20;100689.00;;;;5068836;28;20174;-69
2023/04/24 10:56:19;;;;;;;5.13;1.47;;;12.70;99.90;14.50;100713.00;;;;5069893;28;20213;-68
2023/04/24 10:58:53;;;;;;;0.10;0.10;;;12.60;99.90;17.00;100704.00;;;;5069018;28;20658;-68
2023/04/24 11:01:31;;;;;;;1.27;1.07;;;13.50;99.90;17.80;100732.00;;;;5068142;28;20243;-68
2023/04/24 11:04:02;;;;;;;0.10;0.10;;;14.20;99.90;17.70;100698.00;;;;5068662;28;20235;-68
2023/04/24 11:06:36;;;;;;;0.37;0.33;;;14.40;99.90;17.60;100744.00;;;;5068630;28;20189;-69
2023/04/24 11:09:09;;;;;;;0.20;0.20;;;14.30;99.90;17.20;100752.00;;;;5068689;28;20291;-68
2023/04/24 11:11:37;;;;;;;0.20;0.20;;;14.10;99.90;16.70;100768.00;;;;5069615;28;20197;-68
2023/04/24 11:14:08;;;;;;;0.67;0.33;;;13.60;99.90;17.20;100759.00;;;;5068467;28;20182;-68
2023/04/24 11:16:53;;;;;;;0.20;0.20;;;13.70;99.90;17.90;100752.00;;;;5069584;28;20191;-69
2023/04/24 11:19:25;;;;;;;0.43;0.43;;;14.10;99.90;18.80;100741.00;;;;5069763;28;20208;-68
2023/04/24 11:22:05;;;;;;;0.20;0.20;;;14.90;99.90;17.30;100775.00;;;;5068382;28;20668;-68
2023/04/24 11:24:46;;;;;;;0.40;0.40;;;14.70;99.90;18.20;100751.00;;;;5068301;28;20194;-68
2023/04/24 11:27:17;;;;;;;0.13;0.13;;;14.80;99.90;18.90;100748.00;;;;5068301;28;20186;-69
2023/04/24 11:29:48;;;;;;;0.10;0.10;;;15.10;99.90;18.50;100747.00;;;;5060633;28;20246;-69
2023/04/24 11:32:34;;;;;;;0.50;0.50;;;15.40;99.90;17.50;100763.00;;;;5069144;28;20218;-68
2023/04/24 11:35:16;;;;;;;0.10;0.10;;;14.90;99.90;18.50;100748.00;;;;5057186;28;20191;-69
2023/04/24 11:37:49;;;;;;;0.30;0.30;;;14.90;99.90;17.80;100761.00;;;;5068129;28;20240;-68
2023/04/24 11:40:20;;;;;;;0.87;0.70;;;14.70;99.90;18.50;100751.00;;;;5068420;28;20716;-68
2023/04/24 11:42:51;;;;;;;0.13;0.13;;;14.70;99.90;18.40;100755.00;;;;5065339;28;20195;-69
2023/04/24 11:45:32;;;;;;;0.40;0.40;;;14.90;99.90;16.70;100784.00;;;;5054691;28;20279;-68
2023/04/24 11:48:01;;;;;;;0.10;0.10;;;14.30;99.90;17.70;100782.00;;;;5045145;28;20646;-69
2023/04/24 11:50:29;;;;;;;0.10;0.10;;;14.30;99.90;18.20;100771.00;;;;5055428;28;20187;-68
2023/04/24 11:52:55;;;;;;;0.20;0.20;;;14.40;99.90;17.70;100790.00;;;;5055932;28;20204;-68
2023/04/24 11:55:22;;;;;;;1.73;0.63;;;14.30;99.90;16.00;100826.00;;;;5054512;28;20190;-68
2023/04/24 11:57:56;;;;;;;0.27;0.27;;;13.70;99.90;17.10;100801.00;;;;5055285;28;20193;-68
2023/04/24 12:00:35;;;;;;;0.90;0.90;;;13.90;99.90;17.80;100797.00;;;;5055648;28;20268;-68
2023/04/24 12:03:11;;;;;;;0.43;0.43;;;14.30;99.90;18.20;100780.00;;;;5054141;28;20186;-68
2023/04/24 12:05:41;;;;;;;2.47;0.80;;;14.60;99.90;16.10;100828.00;;;;5037707;28;20280;-68
2023/04/24 12:08:07;;;;;;;0.37;0.37;;;14.20;99.90;16.10;100856.00;;;;5054300;28;20174;-68
2023/04/24 12:10:39;;;;;;;2.10;1.17;;;13.40;99.90;16.90;100839.00;;;;5053925;28;20308;-69
2023/04/24 12:13:05;;;;;;;0.80;0.80;;;13.80;99.90;17.60;100830.00;;;;5053697;28;20558;-68
2023/04/24 12:15:31;;;;;;;0.20;0.20;;;14.30;99.90;17.10;100837.00;;;;5070628;28;20186;-69
2023/04/24 12:18:00;;;;;;;0.70;0.70;;;14.10;99.90;15.90;100865.00;;;;5055055;28;20201;-68
2023/04/24 12:20:35;;;;;;;0.70;0.70;;;13.80;99.90;17.60;100820.00;;;;5054230;28;20233;-69
2023/04/24 12:23:02;;;;;;;0.20;0.20;;;14.20;99.90;17.70;100825.00;;;;5053937;28;20213;-69
2023/04/24 12:25:34;;;;;;;5.53;0.50;;;14.50;99.90;18.20;100812.00;;;;5055234;28;20629;-69
2023/04/24 12:28:10;;;;;;;0.20;0.20;;;14.90;99.90;18.70;100820.00;;;;5053237;28;20183;-69
2023/04/24 12:31:00;;;;;;;0.20;0.20;;;15.10;99.90;18.70;100821.00;;;;5053900;28;20258;-69
2023/04/24 12:33:26;;;;;;;0.30;0.30;;;15.10;99.90;18.30;100834.00;;;;5053912;28;20254;-69
2023/04/24 12:35:53;;;;;;;0.10;0.10;;;15.10;99.90;18.90;100820.00;;;;5054959;28;20210;-69
2023/04/24 12:38:26;;;;;;;1.50;1.40;;;15.10;99.90;18.60;100844.00;;;;5053639;28;20187;-68
2023/04/24 12:41:08;;;;;;;0.20;0.20;;;15.00;99.90;18.60;100847.00;;;;5053218;28;20261;-69
2023/04/24 12:43:35;;;;;;;0.27;0.27;;;15.10;99.90;18.40;100850.00;;;;5053383;28;20195;-69
2023/04/24 12:46:06;;;;;;;0.20;0.20;;;15.00;99.90;18.20;100853.00;;;;5053713;28;20186;-68
2023/04/24 12:48:32;;;;;;;0.10;0.10;;;14.90;99.90;17.50;100882.00;;;;5037450;28;20187;-68
2023/04/24 12:51:01;;;;;;;0.20;0.20;;;14.50;99.90;18.00;100863.00;;;;5053307;28;20186;-69
2023/04/24 12:53:32;;;;;;;0.97;0.97;;;14.50;99.90;18.40;100839.00;;;;5053874;28;20644;-69
2023/04/24 12:56:03;;;;;;;0.10;0.10;;;14.70;99.90;18.50;100826.00;;;;5052850;28;20700;-69
2023/04/24 12:58:29;;;;;;;0.10;0.10;;;14.90;99.90;18.80;100817.00;;;;5053320;28;20211;-69
2023/04/24 13:00:58;;;;;;;0.30;0.30;;;15.10;99.90;19.30;100807.00;;;;5054582;28;20565;-69
2023/04/24 13:03:29;;;;;;;0.10;0.10;;;15.40;99.90;19.90;100803.00;;;;5054451;28;20187;-69
2023/04/24 13:06:06;;;;;;;0.40;0.40;;;15.60;99.90;19.00;100805.00;;;;5054366;28;20271;-69
2023/04/24 13:08:37;;;;;;;0.10;0.10;;;15.80;99.90;19.50;100805.00;;;;5047156;28;20689;-69
2023/04/24 13:11:06;;;;;;;8.47;0.73;;;15.70;99.90;18.00;100833.00;;;;5053880;28;20275;-69
2023/04/24 13:13:32;;;;;;;0.10;0.10;;;15.30;99.90;18.70;100820.00;;;;5052684;28;20197;-69
2023/04/24 13:15:58;;;;;;;0.20;0.20;;;15.40;99.90;19.10;100825.00;;;;5052278;28;20374;-69
2023/04/24 13:18:26;;;;;;;0.20;0.20;;;15.50;99.90;19.90;100799.00;;;;5054280;28;20637;-69
2023/04/24 13:20:52;;;;;;;0.20;0.20;;;15.90;99.90;20.00;100810.00;;;;5052954;28;20182;-69
2023/04/24 13:23:26;;;;;;;0.97;0.77;;;16.30;99.90;18.40;100836.00;;;;5053832;28;20204;-69
2023/04/24 13:25:57;;;;;;;0.10;0.10;;;15.90;99.90;19.30;100836.00;;;;5041935;28;20183;-68
2023/04/24 13:28:28;;;;;;;0.40;0.40;;;15.80;99.90;16.50;100891.00;;;;5046717;28;20215;-69
2023/04/24 13:30:54;;;;;;;0.50;0.40;;;14.80;99.90;18.20;100861.00;;;;5052951;28;20223;-69
2023/04/24 13:33:22;;;;;;;0.10;0.10;;;14.90;99.90;18.90;100851.00;;;;5053313;28;20217;-69
2023/04/24 13:35:56;;;;;;;0.97;0.87;;;15.30;99.90;18.40;100871.00;;;;5052357;28;20189;-69
2023/04/24 13:38:27;;;;;;;0.10;0.10;;;15.10;99.90;19.20;100850.00;;;;5047660;28;20187;-69
2023/04/24 13:40:59;;;;;;;1.90;1.60;;;15.40;99.90;19.10;100858.00;;;;5053316;28;20714;-71
2023/04/24 13:43:30;;;;;;;0.10;0.10;;;15.60;99.90;18.80;100863.00;;;;5035766;28;20212;-69
2023/04/24 13:46:32;;;;;;;0.10;0.10;;;15.50;99.90;19.10;100836.00;;;;5053446;28;20288;-69
2023/04/24 13:48:59;;;;;;;0.20;0.20;;;15.40;99.90;19.20;100845.00;;;;5048250;28;20290;-69
2023/04/24 13:51:44;;;;;;;0.10;0.10;;;15.40;99.90;18.50;100834.00;;;;5052148;28;20226;-69
2023/04/24 13:54:13;;;;;;;0.63;0.63;;;15.20;99.90;18.50;100854.00;;;;5051821;28;20183;-69
2023/04/24 13:56:40;;;;;;;0.40;0.30;;;15.00;99.90;18.40;100861.00;;;;5052747;28;20542;-69
2023/04/24 13:59:11;;;;;;;0.40;0.40;;;14.90;99.90;18.50;100860.00;;;;5049631;28;20191;-69
2023/04/24 14:01:37;;;;;;;14.23;12.90;;;15.00;99.90;18.80;100857.00;;;;5052338;28;20192;-69
2023/04/24 14:04:04;;;;;;;0.93;0.20;;;15.00;99.90;19.10;100808.00;;;;5052303;28;20196;-69
2023/04/24 14:06:41;;;;;;;0.33;0.33;;;15.20;99.90;19.50;100836.00;;;;5052851;28;20192;-69
2023/04/24 14:09:10;;;;;;;0.10;0.10;;;15.50;99.90;18.80;100854.00;;;;5051823;28;20585;-69
2023/04/24 14:11:36;;;;;;;0.17;0.17;;;15.50;99.90;19.00;100845.00;;;;5032160;28;20208;-67
2023/04/24 14:14:03;;;;;;;0.20;0.20;;;15.60;99.90;18.70;100858.00;;;;5050516;28;20192;-69
2023/04/24 14:16:52;;;;;;;0.20;0.20;;;15.40;99.90;19.30;100839.00;;;;5053156;28;20210;-69
2023/04/24 14:19:47;;;;;;;0.10;0.10;;;15.40;99.90;19.50;100805.00;;;;5051776;28;20266;-69
2023/04/24 14:22:36;;;;;;;0.40;0.40;;;15.60;99.90;19.30;100790.00;;;;5051005;28;20678;-69
2023/04/24 14:25:53;;;;;;;3.73;0.53;;;15.70;99.90;18.90;100847.00;;;;5051167;28;20195;-69
2023/04/24 14:28:52;;;;;;;0.57;0.57;;;15.40;99.90;17.80;100855.00;;;;5058220;28;20280;-69
2023/04/24 14:31:41;;;;;;;0.20;0.20;;;15.20;99.90;18.60;100845.00;;;;5030323;28;20209;-69
2023/04/24 14:34:33;;;;;;;0.93;0.30;;;15.30;99.90;19.00;100829.00;;;;5030805;28;20196;-69
2023/04/24 14:37:41;;;;;;;0.10;0.10;;;15.10;99.90;18.70;100832.00;;;;5073660;28;20202;-69
2023/04/24 14:40:56;;;;;;;0.30;0.30;;;15.20;99.90;19.20;100835.00;;;;5051296;28;20197;-69
2023/04/24 14:43:47;;;;;;;0.47;0.47;;;15.30;99.90;19.60;100828.00;;;;5067848;28;20560;-69
2023/04/24 14:46:42;;;;;;;0.30;0.30;;;15.50;99.90;19.50;100820.00;;;;5050636;28;20192;-69
2023/04/24 14:49:36;;;;;;;0.50;0.50;;;15.50;99.90;19.50;100820.00;;;;5038441;28;20202;-69
2023/04/24 14:52:07;;;;;;;0.60;0.60;;;15.50;99.90;19.90;100819.00;;;;5060840;28;20219;-69
2023/04/24 14:55:03;;;;;;;0.20;0.20;;;15.80;99.90;19.90;100805.00;;;;5051506;28;20633;-69
2023/04/24 14:57:52;;;;;;;0.10;0.10;;;15.90;99.90;19.30;100847.00;;;;5014148;28;20279;-69
2023/04/24 15:00:59;;;;;;;0.23;0.23;;;15.80;99.90;19.40;100850.00;;;;5011733;28;20711;-68
2023/04/24 15:04:00;;;;;;;0.30;0.30;;;15.50;99.90;19.00;100864.00;;;;5043275;28;20216;-69
2023/04/24 15:06:55;;;;;;;0.10;0.10;;;15.70;99.90;18.30;100886.00;;;;5005979;28;20287;-69
2023/04/24 15:09:46;;;;;;;0.20;0.20;;;15.30;99.90;18.60;100883.00;;;;5023140;28;20725;-69
2023/04/24 15:12:42;;;;;;;0.30;0.30;;;15.10;99.90;18.10;100883.00;;;;5019478;28;20318;-68
2023/04/24 15:15:49;;;;;;;0.10;0.10;;;14.80;99.90;17.90;100891.00;;;;4995450;28;20223;-69
2023/04/24 15:18:54;;;;;;;0.20;0.20;;;14.40;99.90;17.80;100902.00;;;;5047402;28;20221;-69
2023/04/24 15:21:25;;;;;;;0.20;0.20;;;14.20;99.90;17.80;100903.00;;;;5046377;28;20209;-69
2023/04/24 15:24:25;;;;;;;0.20;0.20;;;14.20;99.90;18.00;100901.00;;;;5017442;28;20276;-69
2023/04/24 15:27:20;;;;;;;0.10;0.10;;;14.20;99.90;18.20;100910.00;;;;5033729;28;20551;-69
2023/04/24 15:30:07;;;;;;;0.83;0.83;;;14.60;99.90;18.70;100888.00;;;;5041723;28;20223;-69
2023/04/24 15:32:56;;;;;;;0.10;0.10;;;14.80;99.90;18.40;100897.00;;;;5015975;28;20223;-69
2023/04/24 15:35:45;;;;;;;0.10;0.10;;;14.70;99.90;18.80;100894.00;;;;5062206;28;20199;-69
2023/04/24 15:39:14;;;;;;;0.10;0.10;;;14.80;99.90;17.40;100933.00;;;;5054773;28;20541;-69
2023/04/24 15:41:45;;;;;;;0.20;0.20;;;14.40;99.90;18.50;100890.00;;;;5052701;28;20186;-69
2023/04/24 15:44:36;;;;;;;0.53;0.50;;;14.70;99.90;18.50;100892.00;;;;5054702;28;20332;-69
2023/04/24 15:47:44;;;;;;;0.47;0.47;;;14.90;99.90;18.10;100920.00;;;;5046174;28;20186;-69
2023/04/24 15:50:38;;;;;;;0.10;0.10;;;14.80;99.90;18.20;100931.00;;;;5044374;28;20190;-69
2023/04/24 15:53:27;;;;;;;0.50;0.50;;;14.50;99.90;18.30;100928.00;;;;5054431;28;20738;-69
2023/04/24 15:56:18;;;;;;;0.40;0.40;;;14.50;99.90;17.90;100938.00;;;;5067711;28;20189;-69
2023/04/24 15:59:14;;;;;;;0.10;0.10;;;14.50;99.90;18.40;100948.00;;;;5034889;28;20416;-69
2023/04/24 16:01:50;;;;;;;0.30;0.30;;;14.30;99.90;17.90;100933.00;;;;5053829;28;20202;-69
2023/04/24 16:04:39;;;;;;;0.10;0.10;;;14.50;99.90;17.90;100951.00;;;;5044998;28;20660;-69
2023/04/24 16:07:48;;;;;;;0.10;0.10;;;14.40;99.90;18.10;100950.00;;;;5053828;28;20286;-69
2023/04/24 16:10:32;;;;;;;0.50;0.50;;;14.20;99.90;17.50;100947.00;;;;5054231;28;20197;-69
2023/04/24 16:13:18;;;;;;;0.10;0.10;;;14.10;99.90;17.80;100950.00;;;;5053679;28;20659;-69
2023/04/24 16:16:25;;;;;;;0.10;0.10;;;14.10;99.90;17.00;100969.00;;;;5029096;28;20187;-69
2023/04/24 16:19:00;;;;;;;0.30;0.30;;;13.80;99.90;17.30;100968.00;;;;5045777;28;20200;-69
2023/04/24 16:21:46;;;;;;;0.20;0.20;;;13.70;99.90;17.60;100961.00;;;;5048214;28;20723;-69
2023/04/24 16:24:38;;;;;;;1.43;0.87;;;13.90;99.90;17.70;100959.00;;;;5050459;28;20203;-69
2023/04/24 16:27:27;;;;;;;0.50;0.50;;;14.00;99.90;17.00;100968.00;;;;5053291;28;20202;-69
2023/04/24 16:33:46;;;;;;;0.10;0.10;;;13.70;99.90;18.10;100976.00;;;;4918128;29;20202;-69
2023/04/24 16:36:32;;;;;;;0.13;0.13;;;14.00;99.90;18.00;100958.00;;;;4919767;29;20212;-69
2023/04/24 16:39:21;;;;;;;0.20;0.20;;;14.20;99.90;17.30;100982.00;;;;4896056;29;20210;-68
2023/04/24 16:42:12;;;;;;;0.50;0.50;;;14.10;99.90;17.30;100977.00;;;;4946518;28;20290;-68
2023/04/24 16:45:01;;;;;;;0.10;0.10;;;13.70;99.90;17.60;100977.00;;;;4964109;28;20286;-68
2023/04/24 16:51:20;;;;;;;0.20;0.20;;;13.90;99.90;16.50;101006.00;;;;4953951;28;20199;-68
2023/04/24 16:54:14;;;;;;;0.30;0.30;;;13.60;99.90;16.00;101030.00;;;;4978966;28;20204;-68
2023/04/24 16:57:10;;;;;;;0.10;0.10;;;12.90;99.90;17.00;100999.00;;;;4976499;28;20250;-68
2023/04/24 17:00:05;;;;;;;0.37;0.30;;;12.90;99.90;16.90;101019.00;;;;4969642;28;20226;-68
2023/04/24 17:03:32;;;;;;;0.13;0.13;;;13.10;99.90;16.50;101030.00;;;;4965050;28;20220;-68
2023/04/24 17:06:12;;;;;;;1.67;1.47;;;13.20;99.90;16.60;100991.00;;;;4929344;29;20205;-68
2023/04/24 17:09:02;;;;;;;0.43;0.40;;;13.20;99.90;16.20;101040.00;;;;4923977;28;20280;-69
2023/04/24 17:12:14;;;;;;;0.40;0.40;;;12.90;99.90;16.80;101030.00;;;;5035232;28;20683;-68
2023/04/24 17:15:10;;;;;;;0.20;0.20;;;12.90;99.90;16.00;101032.00;;;;4983862;28;20216;-69
2023/04/24 17:18:17;;;;;;;0.20;0.20;;;13.00;99.90;16.50;101037.00;;;;5012070;28;20198;-68
2023/04/24 17:21:10;;;;;;;0.20;0.20;;;13.00;99.90;16.90;101023.00;;;;5022276;28;20221;-69
2023/04/24 17:23:57;;;;;;;2.53;0.73;;;13.10;99.90;16.70;101015.00;;;;4994775;28;20202;-68
2023/04/24 17:27:06;;;;;;;0.47;0.47;;;13.10;99.90;16.30;101028.00;;;;4961646;28;20257;-68
2023/04/24 17:30:11;;;;;;;0.17;0.17;;;13.00;99.90;16.20;101027.00;;;;5066198;28;20211;-68
2023/04/24 17:33:06;;;;;;;0.20;0.20;;;12.90;99.90;16.50;101021.00;;;;5054811;28;20211;-68
2023/04/24 17:36:02;;;;;;;0.23;0.23;;;12.90;99.90;15.80;101040.00;;;;5052789;28;20655;-68
2023/04/24 17:38:40;;;;;;;1.27;1.17;;;12.90;99.90;16.10;101030.00;;;;5052472;28;20626;-68
2023/04/24 17:41:28;;;;;;;0.60;0.60;;;12.60;99.90;16.40;101013.00;;;;5051982;28;20250;-68
2023/04/24 17:44:22;;;;;;;0.20;0.20;;;12.80;99.90;16.00;100979.00;;;;5053583;28;20192;-68
2023/04/24 17:47:31;;;;;;;0.10;0.10;;;12.50;99.90;16.30;101027.00;;;;5052915;28;20199;-68
2023/04/24 17:50:43;;;;;;;0.10;0.10;;;12.50;99.90;16.30;101031.00;;;;5025353;28;20546;-69
2023/04/24 17:53:55;;;;;;;2.07;1.90;;;12.70;99.90;16.70;101022.00;;;;5038974;28;20224;-68
2023/04/24 17:57:09;;;;;;;0.20;0.20;;;12.80;99.90;17.00;101027.00;;;;5037915;28;20183;-68
2023/04/24 18:00:16;;;;;;;0.53;0.53;;;13.00;99.90;16.80;101020.00;;;;5055842;28;20187;-68
2023/04/24 18:03:13;;;;;;;0.57;0.57;;;13.00;99.90;16.30;101028.00;;;;5071616;28;20204;-68
2023/04/24 18:06:09;;;;;;;0.20;0.20;;;12.70;99.90;16.60;101026.00;;;;5052198;28;20195;-69
2023/04/24 18:09:02;;;;;;;0.33;0.33;;;12.70;99.90;16.00;101026.00;;;;5028485;28;20223;-68
2023/04/24 18:12:00;;;;;;;0.70;0.70;;;12.40;99.90;15.60;101024.00;;;;5044420;28;20192;-68
2023/04/24 18:14:58;;;;;;;0.13;0.13;;;12.20;99.90;15.90;101025.00;;;;5041997;28;20214;-68
2023/04/24 18:18:08;;;;;;;0.10;0.10;;;12.30;99.90;16.00;101022.00;;;;5046037;28;20332;-68
2023/04/24 18:21:08;;;;;;;0.20;0.20;;;12.40;99.90;16.50;101012.00;;;;5053034;28;20225;-69
2023/04/24 18:23:54;;;;;;;0.20;0.20;;;12.40;99.90;16.40;101002.00;;;;5043589;28;20213;-69
2023/04/24 18:27:02;;;;;;;0.13;0.13;;;12.60;99.90;16.20;101008.00;;;;5045722;28;20187;-69
2023/04/24 18:30:06;;;;;;;0.40;0.40;;;12.50;99.90;16.00;101020.00;;;;5032606;28;20194;-69
2023/04/24 18:33:15;;;;;;;0.50;0.50;;;12.40;99.90;16.10;101000.00;;;;5051692;28;20222;-69
2023/04/24 18:36:22;;;;;;;0.20;0.20;;;12.40;99.90;15.50;101027.00;;;;5049484;28;20255;-68
2023/04/24 18:39:16;;;;;;;0.20;0.20;;;12.20;99.90;16.10;101015.00;;;;5033665;28;20244;-69
2023/04/24 18:42:07;;;;;;;0.53;0.53;;;12.20;99.90;16.30;100988.00;;;;5050866;28;20220;-68
2023/04/24 18:45:13;;;;;;;0.20;0.20;;;12.20;99.90;16.60;101012.00;;;;5050539;28;20190;-69
2023/04/24 18:48:22;;;;;;;0.20;0.20;;;12.40;99.90;16.20;101022.00;;;;5050198;28;20277;-68
2023/04/24 18:51:12;;;;;;;0.20;0.20;;;12.30;99.90;15.90;101033.00;;;;5039823;28;20221;-68
2023/04/24 18:54:07;;;;;;;0.10;0.10;;;12.30;99.90;15.90;101040.00;;;;5031983;28;20825;-69
2023/04/24 18:57:17;;;;;;;0.20;0.20;;;12.00;99.90;16.10;101041.00;;;;5051113;28;20200;-68
2023/04/24 19:00:23;;;;;;;0.20;0.20;;;12.10;99.90;15.70;101038.00;;;;5050156;28;20194;-68
2023/04/24 19:03:26;;;;;;;0.93;0.93;;;11.80;99.90;15.50;101042.00;;;;5015197;28;20332;-68
2023/04/24 19:06:19;;;;;;;0.40;0.40;;;11.80;99.90;15.90;101037.00;;;;5039235;28;20315;-68